sensor_id;sensor_type;location;lat;lon;timestamp;P1;durP1;ratioP1;P2;durP2;ratioP2
8716;SDS011;4395;48.554;8.820;2022-11-21T00:01:34;1.75;;;1.63;;
8716;SDS011;4395;48.554;8.820;2022-11-21T00:03:37;1.50;;;1.40;;
8716;SDS011;4395;48.554;8.820;2022-11-21T00:05:40;1.63;;;1.38;;
8716;SDS011;4395;48.554;8.820;2022-11-21T00:07:45;1.80;;;1.67;;
8716;SDS011;4395;48.554;8.820;2022-11-21T00:09:51;2.22;;;2.03;;
8716;SDS011;4395;48.554;8.820;2022-11-21T00:11:54;1.25;;;1.15;;
8716;SDS011;4395;48.554;8.820;2022-11-21T00:13:56;0.80;;;0.80;;
8716;SDS011;4395;48.554;8.820;2022-11-21T00:16:01;0.95;;;0.82;;
8716;SDS011;4395;48.554;8.820;2022-11-21T00:18:05;1.05;;;1.05;;
8716;SDS011;4395;48.554;8.820;2022-11-21T00:20:08;0.85;;;0.43;;
8716;SDS011;4395;48.554;8.820;2022-11-21T00:22:11;1.00;;;1.00;;
8716;SDS011;4395;48.554;8.820;2022-11-21T00:24:14;0.55;;;0.40;;
8716;SDS011;4395;48.554;8.820;2022-11-21T00:26:18;0.60;;;0.60;;
8716;SDS011;4395;48.554;8.820;2022-11-21T00:28:21;0.60;;;0.50;;
8716;SDS011;4395;48.554;8.820;2022-11-21T00:30:23;0.50;;;0.30;;
8716;SDS011;4395;48.554;8.820;2022-11-21T00:32:26;1.75;;;0.63;;
8716;SDS011;4395;48.554;8.820;2022-11-21T00:34:29;0.90;;;0.60;;
8716;SDS011;4395;48.554;8.820;2022-11-21T00:36:32;0.98;;;0.50;;
8716;SDS011;4395;48.554;8.820;2022-11-21T00:38:35;1.27;;;0.60;;
8716;SDS011;4395;48.554;8.820;2022-11-21T00:40:38;0.85;;;0.50;;
8716;SDS011;4395;48.554;8.820;2022-11-21T00:42:42;1.20;;;1.10;;
8716;SDS011;4395;48.554;8.820;2022-11-21T00:44:45;0.90;;;0.70;;
8716;SDS011;4395;48.554;8.820;2022-11-21T00:46:48;1.38;;;1.00;;
8716;SDS011;4395;48.554;8.820;2022-11-21T00:48:50;0.63;;;0.63;;
8716;SDS011;4395;48.554;8.820;2022-11-21T00:50:53;1.17;;;0.93;;
8716;SDS011;4395;48.554;8.820;2022-11-21T00:52:56;1.08;;;0.47;;
8716;SDS011;4395;48.554;8.820;2022-11-21T00:54:59;2.03;;;0.70;;
8716;SDS011;4395;48.554;8.820;2022-11-21T00:57:02;1.83;;;0.90;;
8716;SDS011;4395;48.554;8.820;2022-11-21T00:59:06;2.15;;;0.93;;
8716;SDS011;4395;48.554;8.820;2022-11-21T01:01:10;0.50;;;0.38;;
8716;SDS011;4395;48.554;8.820;2022-11-21T01:03:14;2.28;;;0.60;;
8716;SDS011;4395;48.554;8.820;2022-11-21T01:05:17;1.58;;;0.70;;
8716;SDS011;4395;48.554;8.820;2022-11-21T01:07:22;1.75;;;0.80;;
8716;SDS011;4395;48.554;8.820;2022-11-21T01:09:25;0.85;;;0.60;;
8716;SDS011;4395;48.554;8.820;2022-11-21T01:11:29;0.75;;;0.73;;
8716;SDS011;4395;48.554;8.820;2022-11-21T01:13:32;0.45;;;0.32;;
8716;SDS011;4395;48.554;8.820;2022-11-21T01:15:37;1.08;;;0.90;;
8716;SDS011;4395;48.554;8.820;2022-11-21T01:17:40;2.67;;;1.05;;
8716;SDS011;4395;48.554;8.820;2022-11-21T01:19:42;1.58;;;0.80;;
8716;SDS011;4395;48.554;8.820;2022-11-21T01:21:45;4.88;;;1.00;;
8716;SDS011;4395;48.554;8.820;2022-11-21T01:23:48;1.88;;;1.02;;
8716;SDS011;4395;48.554;8.820;2022-11-21T01:25:51;4.40;;;0.98;;
8716;SDS011;4395;48.554;8.820;2022-11-21T01:27:54;2.38;;;1.10;;
8716;SDS011;4395;48.554;8.820;2022-11-21T01:29:57;2.30;;;1.38;;
8716;SDS011;4395;48.554;8.820;2022-11-21T01:32:01;2.28;;;1.00;;
8716;SDS011;4395;48.554;8.820;2022-11-21T01:34:04;2.88;;;1.02;;
8716;SDS011;4395;48.554;8.820;2022-11-21T01:36:07;1.92;;;0.75;;
8716;SDS011;4395;48.554;8.820;2022-11-21T01:38:12;2.40;;;1.10;;
8716;SDS011;4395;48.554;8.820;2022-11-21T01:40:15;1.55;;;1.05;;
8716;SDS011;4395;48.554;8.820;2022-11-21T01:42:18;2.22;;;0.85;;
8716;SDS011;4395;48.554;8.820;2022-11-21T01:44:22;1.00;;;0.80;;
8716;SDS011;4395;48.554;8.820;2022-11-21T01:46:27;2.38;;;0.98;;
8716;SDS011;4395;48.554;8.820;2022-11-21T01:48:33;2.15;;;0.90;;
8716;SDS011;4395;48.554;8.820;2022-11-21T01:50:39;1.63;;;0.95;;
8716;SDS011;4395;48.554;8.820;2022-11-21T01:52:42;2.88;;;1.08;;
8716;SDS011;4395;48.554;8.820;2022-11-21T01:54:45;2.45;;;0.73;;
8716;SDS011;4395;48.554;8.820;2022-11-21T01:56:55;2.70;;;1.00;;
8716;SDS011;4395;48.554;8.820;2022-11-21T01:59:03;3.42;;;0.82;;
8716;SDS011;4395;48.554;8.820;2022-11-21T02:01:08;1.08;;;0.50;;
8716;SDS011;4395;48.554;8.820;2022-11-21T02:03:14;2.05;;;1.15;;
8716;SDS011;4395;48.554;8.820;2022-11-21T02:05:22;0.57;;;0.52;;
8716;SDS011;4395;48.554;8.820;2022-11-21T02:07:29;1.02;;;0.60;;
8716;SDS011;4395;48.554;8.820;2022-11-21T02:09:37;0.95;;;0.70;;
8716;SDS011;4395;48.554;8.820;2022-11-21T02:11:43;2.03;;;0.70;;
8716;SDS011;4395;48.554;8.820;2022-11-21T02:13:49;1.73;;;0.60;;
8716;SDS011;4395;48.554;8.820;2022-11-21T02:15:52;2.80;;;0.82;;
8716;SDS011;4395;48.554;8.820;2022-11-21T02:17:56;1.17;;;0.55;;
8716;SDS011;4395;48.554;8.820;2022-11-21T02:19:59;1.95;;;0.70;;
8716;SDS011;4395;48.554;8.820;2022-11-21T02:22:06;0.90;;;0.55;;
8716;SDS011;4395;48.554;8.820;2022-11-21T02:24:19;2.08;;;1.33;;
8716;SDS011;4395;48.554;8.820;2022-11-21T02:26:30;0.63;;;0.50;;
8716;SDS011;4395;48.554;8.820;2022-11-21T02:28:33;1.58;;;0.60;;
8716;SDS011;4395;48.554;8.820;2022-11-21T02:30:37;0.63;;;0.40;;
8716;SDS011;4395;48.554;8.820;2022-11-21T02:32:42;1.60;;;0.68;;
8716;SDS011;4395;48.554;8.820;2022-11-21T02:34:47;1.40;;;0.68;;
8716;SDS011;4395;48.554;8.820;2022-11-21T02:36:50;1.80;;;0.70;;
8716;SDS011;4395;48.554;8.820;2022-11-21T02:38:53;0.95;;;0.68;;
8716;SDS011;4395;48.554;8.820;2022-11-21T02:40:58;5.28;;;0.55;;
8716;SDS011;4395;48.554;8.820;2022-11-21T02:43:07;1.42;;;0.70;;
8716;SDS011;4395;48.554;8.820;2022-11-21T02:45:15;0.40;;;0.40;;
8716;SDS011;4395;48.554;8.820;2022-11-21T02:47:22;0.95;;;0.60;;
8716;SDS011;4395;48.554;8.820;2022-11-21T02:49:30;7.75;;;4.00;;
8716;SDS011;4395;48.554;8.820;2022-11-21T02:51:41;30.63;;;12.60;;
8716;SDS011;4395;48.554;8.820;2022-11-21T02:53:44;17.63;;;7.35;;
8716;SDS011;4395;48.554;8.820;2022-11-21T02:55:47;2.70;;;1.30;;
8716;SDS011;4395;48.554;8.820;2022-11-21T02:57:50;5.15;;;2.58;;
8716;SDS011;4395;48.554;8.820;2022-11-21T02:59:55;2.35;;;0.63;;
8716;SDS011;4395;48.554;8.820;2022-11-21T03:01:57;0.55;;;0.20;;
8716;SDS011;4395;48.554;8.820;2022-11-21T03:04:01;1.30;;;1.15;;
8716;SDS011;4395;48.554;8.820;2022-11-21T03:06:04;1.10;;;1.00;;
8716;SDS011;4395;48.554;8.820;2022-11-21T03:08:07;1.65;;;0.77;;
8716;SDS011;4395;48.554;8.820;2022-11-21T03:10:10;1.02;;;0.50;;
8716;SDS011;4395;48.554;8.820;2022-11-21T03:12:14;1.33;;;1.00;;
8716;SDS011;4395;48.554;8.820;2022-11-21T03:14:17;1.60;;;0.60;;
8716;SDS011;4395;48.554;8.820;2022-11-21T03:16:21;1.10;;;0.57;;
8716;SDS011;4395;48.554;8.820;2022-11-21T03:18:23;1.15;;;0.80;;
8716;SDS011;4395;48.554;8.820;2022-11-21T03:20:26;0.52;;;0.40;;
8716;SDS011;4395;48.554;8.820;2022-11-21T03:22:29;0.88;;;0.50;;
8716;SDS011;4395;48.554;8.820;2022-11-21T03:24:32;2.70;;;0.55;;
8716;SDS011;4395;48.554;8.820;2022-11-21T03:26:35;0.45;;;0.40;;
8716;SDS011;4395;48.554;8.820;2022-11-21T03:28:38;0.75;;;0.40;;
8716;SDS011;4395;48.554;8.820;2022-11-21T03:30:43;3.33;;;0.50;;
8716;SDS011;4395;48.554;8.820;2022-11-21T03:32:47;1.58;;;0.70;;
8716;SDS011;4395;48.554;8.820;2022-11-21T03:34:50;1.58;;;0.25;;
8716;SDS011;4395;48.554;8.820;2022-11-21T03:36:53;0.40;;;0.40;;
8716;SDS011;4395;48.554;8.820;2022-11-21T03:38:56;1.27;;;0.30;;
8716;SDS011;4395;48.554;8.820;2022-11-21T03:41:02;1.00;;;0.30;;
8716;SDS011;4395;48.554;8.820;2022-11-21T03:43:05;0.73;;;0.30;;
8716;SDS011;4395;48.554;8.820;2022-11-21T03:45:08;0.20;;;0.20;;
8716;SDS011;4395;48.554;8.820;2022-11-21T03:47:11;1.42;;;0.40;;
8716;SDS011;4395;48.554;8.820;2022-11-21T03:49:15;0.75;;;0.47;;
8716;SDS011;4395;48.554;8.820;2022-11-21T03:51:18;1.00;;;0.40;;
8716;SDS011;4395;48.554;8.820;2022-11-21T03:53:21;0.82;;;0.30;;
8716;SDS011;4395;48.554;8.820;2022-11-21T03:55:24;0.70;;;0.45;;
8716;SDS011;4395;48.554;8.820;2022-11-21T03:57:27;0.55;;;0.30;;
8716;SDS011;4395;48.554;8.820;2022-11-21T03:59:30;0.63;;;0.40;;
8716;SDS011;4395;48.554;8.820;2022-11-21T04:01:33;0.60;;;0.40;;
8716;SDS011;4395;48.554;8.820;2022-11-21T04:03:37;0.73;;;0.47;;
8716;SDS011;4395;48.554;8.820;2022-11-21T04:05:42;0.73;;;0.30;;
8716;SDS011;4395;48.554;8.820;2022-11-21T04:07:45;0.85;;;0.52;;
8716;SDS011;4395;48.554;8.820;2022-11-21T04:09:48;1.15;;;0.63;;
8716;SDS011;4395;48.554;8.820;2022-11-21T04:11:51;1.85;;;0.40;;
8716;SDS011;4395;48.554;8.820;2022-11-21T04:13:53;0.40;;;0.40;;
8716;SDS011;4395;48.554;8.820;2022-11-21T04:15:56;0.80;;;0.75;;
8716;SDS011;4395;48.554;8.820;2022-11-21T04:17:59;0.30;;;0.30;;
8716;SDS011;4395;48.554;8.820;2022-11-21T04:20:02;1.48;;;0.50;;
8716;SDS011;4395;48.554;8.820;2022-11-21T04:22:06;0.38;;;0.38;;
8716;SDS011;4395;48.554;8.820;2022-11-21T04:24:09;0.95;;;0.50;;
8716;SDS011;4395;48.554;8.820;2022-11-21T04:26:12;0.32;;;0.32;;
8716;SDS011;4395;48.554;8.820;2022-11-21T04:28:15;0.50;;;0.30;;
8716;SDS011;4395;48.554;8.820;2022-11-21T04:30:18;0.60;;;0.40;;
8716;SDS011;4395;48.554;8.820;2022-11-21T04:32:21;0.70;;;0.50;;
8716;SDS011;4395;48.554;8.820;2022-11-21T04:34:24;0.75;;;0.20;;
8716;SDS011;4395;48.554;8.820;2022-11-21T04:36:27;1.05;;;0.30;;
8716;SDS011;4395;48.554;8.820;2022-11-21T04:38:32;1.27;;;0.50;;
8716;SDS011;4395;48.554;8.820;2022-11-21T04:40:35;1.50;;;0.65;;
8716;SDS011;4395;48.554;8.820;2022-11-21T04:42:39;5.82;;;3.20;;
8716;SDS011;4395;48.554;8.820;2022-11-21T04:44:42;3.97;;;2.22;;
8716;SDS011;4395;48.554;8.820;2022-11-21T04:46:45;8.88;;;4.30;;
8716;SDS011;4395;48.554;8.820;2022-11-21T04:48:48;3.30;;;1.40;;
8716;SDS011;4395;48.554;8.820;2022-11-21T04:50:51;4.43;;;2.45;;
8716;SDS011;4395;48.554;8.820;2022-11-21T04:52:54;3.55;;;1.92;;
8716;SDS011;4395;48.554;8.820;2022-11-21T04:54:59;4.05;;;2.30;;
8716;SDS011;4395;48.554;8.820;2022-11-21T04:57:02;3.20;;;2.20;;
8716;SDS011;4395;48.554;8.820;2022-11-21T04:59:05;2.10;;;1.33;;
8716;SDS011;4395;48.554;8.820;2022-11-21T05:01:08;1.02;;;0.60;;
8716;SDS011;4395;48.554;8.820;2022-11-21T05:03:11;0.20;;;0.20;;
8716;SDS011;4395;48.554;8.820;2022-11-21T05:05:13;0.28;;;0.20;;
8716;SDS011;4395;48.554;8.820;2022-11-21T05:07:16;0.45;;;0.30;;
8716;SDS011;4395;48.554;8.820;2022-11-21T05:09:19;1.50;;;0.50;;
8716;SDS011;4395;48.554;8.820;2022-11-21T05:11:24;1.70;;;0.20;;
8716;SDS011;4395;48.554;8.820;2022-11-21T05:13:44;0.47;;;0.20;;
8716;SDS011;4395;48.554;8.820;2022-11-21T05:15:47;1.60;;;0.30;;
8716;SDS011;4395;48.554;8.820;2022-11-21T05:17:52;1.27;;;1.13;;
8716;SDS011;4395;48.554;8.820;2022-11-21T05:19:54;0.65;;;0.50;;
8716;SDS011;4395;48.554;8.820;2022-11-21T05:21:57;0.93;;;0.70;;
8716;SDS011;4395;48.554;8.820;2022-11-21T05:24:00;0.82;;;0.77;;
8716;SDS011;4395;48.554;8.820;2022-11-21T05:26:03;0.90;;;0.90;;
8716;SDS011;4395;48.554;8.820;2022-11-21T05:28:07;0.80;;;0.75;;
8716;SDS011;4395;48.554;8.820;2022-11-21T05:30:11;1.20;;;1.10;;
8716;SDS011;4395;48.554;8.820;2022-11-21T05:32:14;0.57;;;0.57;;
8716;SDS011;4395;48.554;8.820;2022-11-21T05:34:17;0.55;;;0.40;;
8716;SDS011;4395;48.554;8.820;2022-11-21T05:36:20;0.40;;;0.32;;
8716;SDS011;4395;48.554;8.820;2022-11-21T05:38:23;1.65;;;0.90;;
8716;SDS011;4395;48.554;8.820;2022-11-21T05:40:25;0.82;;;0.80;;
8716;SDS011;4395;48.554;8.820;2022-11-21T05:42:28;1.60;;;0.70;;
8716;SDS011;4395;48.554;8.820;2022-11-21T05:44:50;1.08;;;0.35;;
8716;SDS011;4395;48.554;8.820;2022-11-21T05:46:52;0.40;;;0.30;;
8716;SDS011;4395;48.554;8.820;2022-11-21T05:48:55;0.30;;;0.30;;
8716;SDS011;4395;48.554;8.820;2022-11-21T05:50:58;0.63;;;0.50;;
8716;SDS011;4395;48.554;8.820;2022-11-21T05:53:01;2.33;;;0.75;;
8716;SDS011;4395;48.554;8.820;2022-11-21T05:55:05;1.13;;;0.80;;
8716;SDS011;4395;48.554;8.820;2022-11-21T05:57:08;1.45;;;0.85;;
8716;SDS011;4395;48.554;8.820;2022-11-21T05:59:11;0.63;;;0.63;;
8716;SDS011;4395;48.554;8.820;2022-11-21T06:01:15;0.70;;;0.70;;
8716;SDS011;4395;48.554;8.820;2022-11-21T06:03:39;1.67;;;1.33;;
8716;SDS011;4395;48.554;8.820;2022-11-21T06:05:42;2.15;;;1.90;;
8716;SDS011;4395;48.554;8.820;2022-11-21T06:07:45;2.30;;;2.10;;
8716;SDS011;4395;48.554;8.820;2022-11-21T06:09:47;1.55;;;1.45;;
8716;SDS011;4395;48.554;8.820;2022-11-21T06:11:50;1.05;;;1.00;;
8716;SDS011;4395;48.554;8.820;2022-11-21T06:13:53;2.38;;;1.42;;
8716;SDS011;4395;48.554;8.820;2022-11-21T06:15:58;2.38;;;1.40;;
8716;SDS011;4395;48.554;8.820;2022-11-21T06:18:04;3.30;;;1.35;;
8716;SDS011;4395;48.554;8.820;2022-11-21T06:20:08;3.35;;;2.70;;
8716;SDS011;4395;48.554;8.820;2022-11-21T06:22:11;4.40;;;3.60;;
8716;SDS011;4395;48.554;8.820;2022-11-21T06:24:14;2.97;;;2.67;;
8716;SDS011;4395;48.554;8.820;2022-11-21T06:26:23;3.00;;;2.35;;
8716;SDS011;4395;48.554;8.820;2022-11-21T06:28:29;2.60;;;2.17;;
8716;SDS011;4395;48.554;8.820;2022-11-21T06:30:33;3.30;;;2.83;;
8716;SDS011;4395;48.554;8.820;2022-11-21T06:32:36;8.82;;;5.20;;
8716;SDS011;4395;48.554;8.820;2022-11-21T06:34:41;6.95;;;5.20;;
8716;SDS011;4395;48.554;8.820;2022-11-21T06:36:44;4.28;;;3.55;;
8716;SDS011;4395;48.554;8.820;2022-11-21T06:38:46;5.63;;;4.13;;
8716;SDS011;4395;48.554;8.820;2022-11-21T06:40:50;4.43;;;3.90;;
8716;SDS011;4395;48.554;8.820;2022-11-21T06:42:52;5.15;;;4.45;;
8716;SDS011;4395;48.554;8.820;2022-11-21T06:44:55;3.20;;;2.90;;
8716;SDS011;4395;48.554;8.820;2022-11-21T06:46:58;4.43;;;3.08;;
8716;SDS011;4395;48.554;8.820;2022-11-21T06:49:01;2.55;;;1.95;;
8716;SDS011;4395;48.554;8.820;2022-11-21T06:51:05;2.58;;;1.70;;
8716;SDS011;4395;48.554;8.820;2022-11-21T06:53:10;2.08;;;1.80;;
8716;SDS011;4395;48.554;8.820;2022-11-21T06:55:13;2.63;;;1.60;;
8716;SDS011;4395;48.554;8.820;2022-11-21T06:57:16;2.10;;;1.38;;
8716;SDS011;4395;48.554;8.820;2022-11-21T06:59:18;4.88;;;1.75;;
8716;SDS011;4395;48.554;8.820;2022-11-21T07:01:21;4.03;;;1.33;;
8716;SDS011;4395;48.554;8.820;2022-11-21T07:03:25;3.85;;;1.65;;
8716;SDS011;4395;48.554;8.820;2022-11-21T07:05:28;2.33;;;1.55;;
8716;SDS011;4395;48.554;8.820;2022-11-21T07:07:32;2.28;;;1.20;;
8716;SDS011;4395;48.554;8.820;2022-11-21T07:09:35;3.00;;;1.38;;
8716;SDS011;4395;48.554;8.820;2022-11-21T07:11:38;2.60;;;1.23;;
8716;SDS011;4395;48.554;8.820;2022-11-21T07:13:41;4.38;;;1.77;;
8716;SDS011;4395;48.554;8.820;2022-11-21T07:15:43;2.95;;;1.55;;
8716;SDS011;4395;48.554;8.820;2022-11-21T07:17:47;2.28;;;1.85;;
8716;SDS011;4395;48.554;8.820;2022-11-21T07:19:50;3.55;;;2.03;;
8716;SDS011;4395;48.554;8.820;2022-11-21T07:21:53;4.00;;;1.70;;
8716;SDS011;4395;48.554;8.820;2022-11-21T07:23:57;3.97;;;2.28;;
8716;SDS011;4395;48.554;8.820;2022-11-21T07:26:00;5.18;;;1.77;;
8716;SDS011;4395;48.554;8.820;2022-11-21T07:28:04;4.70;;;1.80;;
8716;SDS011;4395;48.554;8.820;2022-11-21T07:30:08;2.83;;;1.58;;
8716;SDS011;4395;48.554;8.820;2022-11-21T07:32:11;3.17;;;2.60;;
8716;SDS011;4395;48.554;8.820;2022-11-21T07:34:15;5.25;;;3.25;;
8716;SDS011;4395;48.554;8.820;2022-11-21T07:36:18;7.80;;;5.30;;
8716;SDS011;4395;48.554;8.820;2022-11-21T07:38:20;9.35;;;4.80;;
8716;SDS011;4395;48.554;8.820;2022-11-21T07:40:25;6.60;;;3.50;;
8716;SDS011;4395;48.554;8.820;2022-11-21T07:42:28;8.32;;;4.63;;
8716;SDS011;4395;48.554;8.820;2022-11-21T07:44:33;9.88;;;5.05;;
8716;SDS011;4395;48.554;8.820;2022-11-21T07:46:36;22.92;;;9.85;;
8716;SDS011;4395;48.554;8.820;2022-11-21T07:48:39;21.83;;;8.68;;
8716;SDS011;4395;48.554;8.820;2022-11-21T07:50:41;11.73;;;3.17;;
8716;SDS011;4395;48.554;8.820;2022-11-21T07:52:44;9.93;;;4.80;;
8716;SDS011;4395;48.554;8.820;2022-11-21T07:54:47;11.27;;;4.82;;
8716;SDS011;4395;48.554;8.820;2022-11-21T07:56:51;9.15;;;3.47;;
8716;SDS011;4395;48.554;8.820;2022-11-21T07:58:54;17.83;;;8.27;;
8716;SDS011;4395;48.554;8.820;2022-11-21T08:00:57;16.58;;;7.82;;
8716;SDS011;4395;48.554;8.820;2022-11-21T08:02:59;13.55;;;6.45;;
8716;SDS011;4395;48.554;8.820;2022-11-21T08:05:03;9.05;;;3.70;;
8716;SDS011;4395;48.554;8.820;2022-11-21T08:07:07;8.68;;;4.07;;
8716;SDS011;4395;48.554;8.820;2022-11-21T08:09:11;8.85;;;4.38;;
8716;SDS011;4395;48.554;8.820;2022-11-21T08:11:14;8.95;;;3.40;;
8716;SDS011;4395;48.554;8.820;2022-11-21T08:13:18;7.78;;;3.90;;
8716;SDS011;4395;48.554;8.820;2022-11-21T08:15:21;5.40;;;2.42;;
8716;SDS011;4395;48.554;8.820;2022-11-21T08:17:24;4.35;;;2.58;;
8716;SDS011;4395;48.554;8.820;2022-11-21T08:19:27;6.93;;;2.90;;
8716;SDS011;4395;48.554;8.820;2022-11-21T08:21:30;8.93;;;2.75;;
8716;SDS011;4395;48.554;8.820;2022-11-21T08:23:33;5.85;;;2.92;;
8716;SDS011;4395;48.554;8.820;2022-11-21T08:25:36;10.52;;;5.10;;
8716;SDS011;4395;48.554;8.820;2022-11-21T08:27:40;6.57;;;3.30;;
8716;SDS011;4395;48.554;8.820;2022-11-21T08:29:44;8.38;;;3.60;;
8716;SDS011;4395;48.554;8.820;2022-11-21T08:31:46;8.75;;;3.90;;
8716;SDS011;4395;48.554;8.820;2022-11-21T08:33:49;8.13;;;3.20;;
8716;SDS011;4395;48.554;8.820;2022-11-21T08:35:57;6.35;;;2.30;;
8716;SDS011;4395;48.554;8.820;2022-11-21T08:38:00;14.40;;;6.95;;
8716;SDS011;4395;48.554;8.820;2022-11-21T08:40:03;16.92;;;7.50;;
8716;SDS011;4395;48.554;8.820;2022-11-21T08:42:08;3.85;;;2.63;;
8716;SDS011;4395;48.554;8.820;2022-11-21T08:44:10;5.80;;;2.83;;
8716;SDS011;4395;48.554;8.820;2022-11-21T08:46:16;5.18;;;3.33;;
8716;SDS011;4395;48.554;8.820;2022-11-21T08:48:18;12.43;;;8.10;;
8716;SDS011;4395;48.554;8.820;2022-11-21T08:50:21;7.03;;;4.45;;
8716;SDS011;4395;48.554;8.820;2022-11-21T08:52:25;5.20;;;2.55;;
8716;SDS011;4395;48.554;8.820;2022-11-21T08:54:28;4.20;;;1.50;;
8716;SDS011;4395;48.554;8.820;2022-11-21T08:56:31;3.70;;;1.63;;
8716;SDS011;4395;48.554;8.820;2022-11-21T08:58:34;5.63;;;2.15;;
8716;SDS011;4395;48.554;8.820;2022-11-21T09:00:36;5.38;;;1.95;;
8716;SDS011;4395;48.554;8.820;2022-11-21T09:02:41;3.88;;;2.38;;
8716;SDS011;4395;48.554;8.820;2022-11-21T09:04:43;7.18;;;3.55;;
8716;SDS011;4395;48.554;8.820;2022-11-21T09:06:46;8.15;;;4.25;;
8716;SDS011;4395;48.554;8.820;2022-11-21T09:08:49;5.63;;;2.67;;
8716;SDS011;4395;48.554;8.820;2022-11-21T09:10:52;10.63;;;3.17;;
8716;SDS011;4395;48.554;8.820;2022-11-21T09:12:56;4.90;;;2.85;;
8716;SDS011;4395;48.554;8.820;2022-11-21T09:14:59;4.97;;;1.77;;
8716;SDS011;4395;48.554;8.820;2022-11-21T09:17:19;5.63;;;2.65;;
8716;SDS011;4395;48.554;8.820;2022-11-21T09:19:41;5.25;;;2.28;;
8716;SDS011;4395;48.554;8.820;2022-11-21T09:21:44;4.95;;;2.00;;
8716;SDS011;4395;48.554;8.820;2022-11-21T09:23:47;2.83;;;1.20;;
8716;SDS011;4395;48.554;8.820;2022-11-21T09:25:50;5.13;;;1.08;;
8716;SDS011;4395;48.554;8.820;2022-11-21T09:27:52;4.35;;;1.55;;
8716;SDS011;4395;48.554;8.820;2022-11-21T09:29:55;3.85;;;1.30;;
8716;SDS011;4395;48.554;8.820;2022-11-21T09:31:58;5.10;;;1.65;;
8716;SDS011;4395;48.554;8.820;2022-11-21T09:34:01;4.13;;;1.20;;
8716;SDS011;4395;48.554;8.820;2022-11-21T09:36:05;4.97;;;1.17;;
8716;SDS011;4395;48.554;8.820;2022-11-21T09:38:08;4.03;;;1.40;;
8716;SDS011;4395;48.554;8.820;2022-11-21T09:40:12;3.70;;;1.70;;
8716;SDS011;4395;48.554;8.820;2022-11-21T09:42:29;3.17;;;1.23;;
8716;SDS011;4395;48.554;8.820;2022-11-21T09:45:02;5.43;;;1.80;;
8716;SDS011;4395;48.554;8.820;2022-11-21T09:47:11;4.70;;;1.50;;
8716;SDS011;4395;48.554;8.820;2022-11-21T09:49:22;4.05;;;1.10;;
8716;SDS011;4395;48.554;8.820;2022-11-21T09:51:29;3.85;;;1.40;;
8716;SDS011;4395;48.554;8.820;2022-11-21T09:53:33;4.25;;;1.30;;
8716;SDS011;4395;48.554;8.820;2022-11-21T09:55:41;2.08;;;1.25;;
8716;SDS011;4395;48.554;8.820;2022-11-21T09:57:47;5.57;;;1.45;;
8716;SDS011;4395;48.554;8.820;2022-11-21T09:59:51;3.35;;;1.20;;
8716;SDS011;4395;48.554;8.820;2022-11-21T10:01:55;2.30;;;1.20;;
8716;SDS011;4395;48.554;8.820;2022-11-21T10:03:58;5.72;;;1.38;;
8716;SDS011;4395;48.554;8.820;2022-11-21T10:06:03;3.05;;;1.35;;
8716;SDS011;4395;48.554;8.820;2022-11-21T10:08:18;4.53;;;1.50;;
8716;SDS011;4395;48.554;8.820;2022-11-21T10:10:33;3.05;;;1.15;;
8716;SDS011;4395;48.554;8.820;2022-11-21T10:12:50;4.13;;;1.52;;
8716;SDS011;4395;48.554;8.820;2022-11-21T10:17:36;5.47;;;2.25;;
8716;SDS011;4395;48.554;8.820;2022-11-21T10:19:53;4.03;;;2.42;;
8716;SDS011;4395;48.554;8.820;2022-11-21T10:22:25;5.20;;;1.70;;
8716;SDS011;4395;48.554;8.820;2022-11-21T10:24:45;4.45;;;1.65;;
8716;SDS011;4395;48.554;8.820;2022-11-21T10:26:55;3.92;;;1.50;;
8716;SDS011;4395;48.554;8.820;2022-11-21T10:29:03;3.65;;;1.50;;
8716;SDS011;4395;48.554;8.820;2022-11-21T10:31:12;3.60;;;1.90;;
8716;SDS011;4395;48.554;8.820;2022-11-21T10:33:17;3.00;;;1.63;;
8716;SDS011;4395;48.554;8.820;2022-11-21T10:35:29;3.58;;;1.63;;
8716;SDS011;4395;48.554;8.820;2022-11-21T10:37:38;2.97;;;1.17;;
8716;SDS011;4395;48.554;8.820;2022-11-21T10:39:48;3.30;;;1.73;;
8716;SDS011;4395;48.554;8.820;2022-11-21T10:41:54;5.78;;;2.55;;
8716;SDS011;4395;48.554;8.820;2022-11-21T10:44:03;5.47;;;2.10;;
8716;SDS011;4395;48.554;8.820;2022-11-21T10:46:31;2.95;;;1.70;;
8716;SDS011;4395;48.554;8.820;2022-11-21T10:48:34;4.97;;;1.27;;
8716;SDS011;4395;48.554;8.820;2022-11-21T10:50:39;3.03;;;1.30;;
8716;SDS011;4395;48.554;8.820;2022-11-21T10:55:33;4.95;;;1.50;;
8716;SDS011;4395;48.554;8.820;2022-11-21T10:57:37;4.93;;;1.70;;
8716;SDS011;4395;48.554;8.820;2022-11-21T11:00:00;8.20;;;1.60;;
8716;SDS011;4395;48.554;8.820;2022-11-21T11:02:22;4.25;;;1.20;;
8716;SDS011;4395;48.554;8.820;2022-11-21T11:04:26;1.92;;;0.85;;
8716;SDS011;4395;48.554;8.820;2022-11-21T11:06:46;4.03;;;1.42;;
8716;SDS011;4395;48.554;8.820;2022-11-21T11:08:50;2.85;;;1.13;;
8716;SDS011;4395;48.554;8.820;2022-11-21T11:11:05;2.42;;;1.30;;
8716;SDS011;4395;48.554;8.820;2022-11-21T11:13:12;4.63;;;1.13;;
8716;SDS011;4395;48.554;8.820;2022-11-21T11:15:52;2.90;;;1.00;;
8716;SDS011;4395;48.554;8.820;2022-11-21T11:17:57;4.00;;;1.25;;
8716;SDS011;4395;48.554;8.820;2022-11-21T11:22:34;3.00;;;1.48;;
8716;SDS011;4395;48.554;8.820;2022-11-21T11:24:37;2.97;;;1.55;;
8716;SDS011;4395;48.554;8.820;2022-11-21T11:27:01;3.45;;;1.10;;
8716;SDS011;4395;48.554;8.820;2022-11-21T11:29:08;4.78;;;1.45;;
8716;SDS011;4395;48.554;8.820;2022-11-21T11:31:15;4.63;;;1.15;;
8716;SDS011;4395;48.554;8.820;2022-11-21T11:33:32;2.75;;;1.23;;
8716;SDS011;4395;48.554;8.820;2022-11-21T11:35:36;4.55;;;1.58;;
8716;SDS011;4395;48.554;8.820;2022-11-21T11:37:39;5.57;;;1.52;;
8716;SDS011;4395;48.554;8.820;2022-11-21T11:39:44;2.97;;;1.27;;
8716;SDS011;4395;48.554;8.820;2022-11-21T11:42:05;5.50;;;1.33;;
8716;SDS011;4395;48.554;8.820;2022-11-21T11:44:43;3.10;;;1.33;;
8716;SDS011;4395;48.554;8.820;2022-11-21T11:47:11;3.95;;;1.60;;
8716;SDS011;4395;48.554;8.820;2022-11-21T11:49:34;9.85;;;4.60;;
8716;SDS011;4395;48.554;8.820;2022-11-21T11:51:55;9.27;;;3.08;;
8716;SDS011;4395;48.554;8.820;2022-11-21T11:54:06;4.70;;;2.15;;
8716;SDS011;4395;48.554;8.820;2022-11-21T11:56:16;4.47;;;1.52;;
8716;SDS011;4395;48.554;8.820;2022-11-21T11:58:25;5.10;;;2.20;;
8716;SDS011;4395;48.554;8.820;2022-11-21T12:00:36;7.35;;;2.63;;
8716;SDS011;4395;48.554;8.820;2022-11-21T12:02:46;5.20;;;1.70;;
8716;SDS011;4395;48.554;8.820;2022-11-21T12:04:57;3.80;;;1.65;;
8716;SDS011;4395;48.554;8.820;2022-11-21T12:07:11;4.47;;;1.95;;
8716;SDS011;4395;48.554;8.820;2022-11-21T12:09:40;4.53;;;1.83;;
8716;SDS011;4395;48.554;8.820;2022-11-21T12:11:52;4.60;;;2.08;;
8716;SDS011;4395;48.554;8.820;2022-11-21T12:14:16;4.20;;;2.13;;
8716;SDS011;4395;48.554;8.820;2022-11-21T12:16:38;6.50;;;1.75;;
8716;SDS011;4395;48.554;8.820;2022-11-21T12:18:46;3.10;;;1.50;;
8716;SDS011;4395;48.554;8.820;2022-11-21T12:20:54;5.03;;;1.65;;
8716;SDS011;4395;48.554;8.820;2022-11-21T12:23:00;5.45;;;1.60;;
8716;SDS011;4395;48.554;8.820;2022-11-21T12:25:08;4.35;;;1.80;;
8716;SDS011;4395;48.554;8.820;2022-11-21T12:27:17;4.70;;;1.65;;
8716;SDS011;4395;48.554;8.820;2022-11-21T12:29:34;2.90;;;1.10;;
8716;SDS011;4395;48.554;8.820;2022-11-21T12:32:00;3.70;;;1.45;;
8716;SDS011;4395;48.554;8.820;2022-11-21T12:34:16;8.25;;;1.92;;
8716;SDS011;4395;48.554;8.820;2022-11-21T12:36:33;5.78;;;1.80;;
8716;SDS011;4395;48.554;8.820;2022-11-21T12:38:51;3.42;;;1.65;;
8716;SDS011;4395;48.554;8.820;2022-11-21T12:41:09;7.20;;;2.42;;
8716;SDS011;4395;48.554;8.820;2022-11-21T12:43:39;5.40;;;1.90;;
8716;SDS011;4395;48.554;8.820;2022-11-21T12:46:01;5.25;;;2.40;;
8716;SDS011;4395;48.554;8.820;2022-11-21T12:50:53;6.75;;;2.40;;
8716;SDS011;4395;48.554;8.820;2022-11-21T12:53:25;4.80;;;2.10;;
8716;SDS011;4395;48.554;8.820;2022-11-21T12:55:52;3.85;;;1.70;;
8716;SDS011;4395;48.554;8.820;2022-11-21T12:58:09;3.58;;;1.00;;
8716;SDS011;4395;48.554;8.820;2022-11-21T13:00:29;4.35;;;1.40;;
8716;SDS011;4395;48.554;8.820;2022-11-21T13:02:48;5.90;;;1.63;;
8716;SDS011;4395;48.554;8.820;2022-11-21T13:05:07;5.85;;;2.00;;
8716;SDS011;4395;48.554;8.820;2022-11-21T13:07:13;3.78;;;1.50;;
8716;SDS011;4395;48.554;8.820;2022-11-21T13:09:18;3.00;;;1.57;;
8716;SDS011;4395;48.554;8.820;2022-11-21T13:11:32;4.10;;;1.60;;
8716;SDS011;4395;48.554;8.820;2022-11-21T13:14:01;16.57;;;9.60;;
8716;SDS011;4395;48.554;8.820;2022-11-21T13:16:09;5.70;;;2.30;;